sensor_id;sensor_type;location;lat;lon;timestamp;pressure;altitude;pressure_sealevel;temperature;humidity
10946;BME280;5525;42.648;23.368;2023-06-05T00:00:41;95143.34;;;14.62;100.00
10946;BME280;5525;42.648;23.368;2023-06-05T00:03:09;95140.63;;;14.62;100.00
10946;BME280;5525;42.648;23.368;2023-06-05T00:05:36;95156.69;;;14.67;100.00
10946;BME280;5525;42.648;23.368;2023-06-05T00:08:02;95156.03;;;14.70;100.00
10946;BME280;5525;42.648;23.368;2023-06-05T00:10:29;95159.88;;;14.69;100.00
10946;BME280;5525;42.648;23.368;2023-06-05T00:12:56;95158.19;;;14.76;100.00
10946;BME280;5525;42.648;23.368;2023-06-05T00:15:23;95151.75;;;14.81;100.00
10946;BME280;5525;42.648;23.368;2023-06-05T00:17:49;95161.09;;;14.47;100.00
10946;BME280;5525;42.648;23.368;2023-06-05T00:20:21;95162.28;;;14.38;100.00
10946;BME280;5525;42.648;23.368;2023-06-05T00:22:48;95161.09;;;14.59;100.00
10946;BME280;5525;42.648;23.368;2023-06-05T00:25:14;95154.56;;;14.60;100.00
10946;BME280;5525;42.648;23.368;2023-06-05T00:27:41;95163.47;;;14.61;100.00
10946;BME280;5525;42.648;23.368;2023-06-05T00:30:08;95156.16;;;14.73;100.00
10946;BME280;5525;42.648;23.368;2023-06-05T00:32:35;95160.34;;;14.83;100.00
10946;BME280;5525;42.648;23.368;2023-06-05T00:35:03;95157.91;;;14.45;100.00
10946;BME280;5525;42.648;23.368;2023-06-05T00:37:31;95158.66;;;14.13;100.00
10946;BME280;5525;42.648;23.368;2023-06-05T00:39:59;95163.75;;;13.82;100.00
10946;BME280;5525;42.648;23.368;2023-06-05T00:42:26;95158.34;;;14.15;100.00
10946;BME280;5525;42.648;23.368;2023-06-05T00:44:53;95161.88;;;13.95;100.00
10946;BME280;5525;42.648;23.368;2023-06-05T00:47:20;95165.59;;;13.70;100.00
10946;BME280;5525;42.648;23.368;2023-06-05T00:49:47;95150.09;;;13.70;100.00
10946;BME280;5525;42.648;23.368;2023-06-05T00:52:14;95141.75;;;13.75;100.00
10946;BME280;5525;42.648;23.368;2023-06-05T00:54:43;95140.38;;;13.48;100.00
10946;BME280;5525;42.648;23.368;2023-06-05T00:57:11;95133.34;;;13.47;100.00
10946;BME280;5525;42.648;23.368;2023-06-05T00:59:37;95137.41;;;13.62;100.00
10946;BME280;5525;42.648;23.368;2023-06-05T01:02:05;95137.34;;;13.71;100.00
10946;BME280;5525;42.648;23.368;2023-06-05T01:04:32;95132.81;;;13.95;100.00
10946;BME280;5525;42.648;23.368;2023-06-05T01:07:02;95112.09;;;13.91;100.00
10946;BME280;5525;42.648;23.368;2023-06-05T01:09:29;95124.25;;;14.05;100.00
10946;BME280;5525;42.648;23.368;2023-06-05T01:12:00;95136.00;;;13.97;100.00
10946;BME280;5525;42.648;23.368;2023-06-05T01:14:28;95127.72;;;13.73;100.00
10946;BME280;5525;42.648;23.368;2023-06-05T01:17:01;95128.66;;;13.36;100.00
10946;BME280;5525;42.648;23.368;2023-06-05T01:19:29;95118.38;;;13.21;100.00
10946;BME280;5525;42.648;23.368;2023-06-05T01:22:00;95129.56;;;13.19;100.00
10946;BME280;5525;42.648;23.368;2023-06-05T01:24:28;95120.53;;;13.07;100.00
10946;BME280;5525;42.648;23.368;2023-06-05T01:27:12;95120.69;;;13.10;100.00
10946;BME280;5525;42.648;23.368;2023-06-05T01:29:47;95120.75;;;12.93;100.00
10946;BME280;5525;42.648;23.368;2023-06-05T01:32:21;95121.56;;;13.23;100.00
10946;BME280;5525;42.648;23.368;2023-06-05T01:34:51;95130.06;;;13.42;100.00
10946;BME280;5525;42.648;23.368;2023-06-05T01:37:19;95124.63;;;13.63;100.00
10946;BME280;5525;42.648;23.368;2023-06-05T01:39:53;95117.34;;;13.75;100.00
10946;BME280;5525;42.648;23.368;2023-06-05T01:42:22;95112.56;;;13.51;100.00
10946;BME280;5525;42.648;23.368;2023-06-05T01:44:50;95120.47;;;13.44;100.00
10946;BME280;5525;42.648;23.368;2023-06-05T01:47:18;95115.22;;;13.39;100.00
10946;BME280;5525;42.648;23.368;2023-06-05T01:49:46;95121.78;;;13.38;100.00
10946;BME280;5525;42.648;23.368;2023-06-05T01:52:13;95113.44;;;13.43;100.00
10946;BME280;5525;42.648;23.368;2023-06-05T01:54:40;95115.16;;;13.69;100.00
10946;BME280;5525;42.648;23.368;2023-06-05T01:57:09;95114.66;;;13.87;100.00
10946;BME280;5525;42.648;23.368;2023-06-05T01:59:36;95112.97;;;13.83;100.00
10946;BME280;5525;42.648;23.368;2023-06-05T02:02:03;95109.72;;;13.69;100.00
10946;BME280;5525;42.648;23.368;2023-06-05T02:04:29;95110.06;;;13.46;100.00
10946;BME280;5525;42.648;23.368;2023-06-05T02:06:56;95103.31;;;13.32;100.00
10946;BME280;5525;42.648;23.368;2023-06-05T02:09:28;95105.28;;;13.23;100.00
10946;BME280;5525;42.648;23.368;2023-06-05T02:11:58;95105.22;;;13.11;100.00
10946;BME280;5525;42.648;23.368;2023-06-05T02:14:30;95111.69;;;12.89;100.00
10946;BME280;5525;42.648;23.368;2023-06-05T02:16:57;95109.16;;;12.84;100.00
10946;BME280;5525;42.648;23.368;2023-06-05T02:19:24;95116.06;;;12.73;100.00
10946;BME280;5525;42.648;23.368;2023-06-05T02:21:51;95108.59;;;12.70;100.00
10946;BME280;5525;42.648;23.368;2023-06-05T02:24:18;95115.88;;;12.78;100.00
10946;BME280;5525;42.648;23.368;2023-06-05T02:26:45;95115.78;;;12.66;100.00
10946;BME280;5525;42.648;23.368;2023-06-05T02:29:11;95113.00;;;12.83;100.00
10946;BME280;5525;42.648;23.368;2023-06-05T02:31:39;95113.25;;;12.90;100.00
10946;BME280;5525;42.648;23.368;2023-06-05T02:34:06;95113.09;;;12.95;100.00
10946;BME280;5525;42.648;23.368;2023-06-05T02:36:33;95109.44;;;13.00;100.00
10946;BME280;5525;42.648;23.368;2023-06-05T02:39:00;95119.91;;;13.10;100.00
10946;BME280;5525;42.648;23.368;2023-06-05T02:41:30;95116.53;;;13.33;100.00
10946;BME280;5525;42.648;23.368;2023-06-05T02:43:56;95115.44;;;13.34;100.00
10946;BME280;5525;42.648;23.368;2023-06-05T02:46:24;95112.44;;;13.27;100.00
10946;BME280;5525;42.648;23.368;2023-06-05T02:48:53;95110.69;;;13.31;100.00
10946;BME280;5525;42.648;23.368;2023-06-05T02:51:19;95107.81;;;13.28;100.00
10946;BME280;5525;42.648;23.368;2023-06-05T02:53:46;95116.00;;;13.19;100.00
10946;BME280;5525;42.648;23.368;2023-06-05T02:56:14;95116.97;;;13.15;100.00
10946;BME280;5525;42.648;23.368;2023-06-05T02:58:41;95110.78;;;13.35;100.00
10946;BME280;5525;42.648;23.368;2023-06-05T03:01:09;95121.03;;;13.50;100.00
10946;BME280;5525;42.648;23.368;2023-06-05T03:03:36;95119.28;;;13.54;100.00
10946;BME280;5525;42.648;23.368;2023-06-05T03:06:04;95115.63;;;13.71;100.00
10946;BME280;5525;42.648;23.368;2023-06-05T03:08:32;95115.28;;;13.72;100.00
10946;BME280;5525;42.648;23.368;2023-06-05T03:11:00;95125.41;;;13.63;100.00
10946;BME280;5525;42.648;23.368;2023-06-05T03:13:27;95129.00;;;13.76;100.00
10946;BME280;5525;42.648;23.368;2023-06-05T03:15:54;95129.19;;;13.50;100.00
10946;BME280;5525;42.648;23.368;2023-06-05T03:18:23;95120.25;;;13.49;100.00
10946;BME280;5525;42.648;23.368;2023-06-05T03:20:50;95126.94;;;13.73;100.00
10946;BME280;5525;42.648;23.368;2023-06-05T03:23:21;95129.53;;;13.90;100.00
10946;BME280;5525;42.648;23.368;2023-06-05T03:25:48;95129.38;;;13.86;100.00
10946;BME280;5525;42.648;23.368;2023-06-05T03:28:15;95131.13;;;13.49;100.00
10946;BME280;5525;42.648;23.368;2023-06-05T03:30:41;95139.78;;;13.43;100.00
10946;BME280;5525;42.648;23.368;2023-06-05T03:33:08;95135.41;;;13.71;100.00
10946;BME280;5525;42.648;23.368;2023-06-05T03:35:35;95138.25;;;13.95;100.00
10946;BME280;5525;42.648;23.368;2023-06-05T03:38:01;95132.44;;;14.17;100.00
10946;BME280;5525;42.648;23.368;2023-06-05T03:40:29;95140.91;;;14.36;100.00
10946;BME280;5525;42.648;23.368;2023-06-05T03:42:56;95137.56;;;14.51;100.00
10946;BME280;5525;42.648;23.368;2023-06-05T03:45:23;95136.78;;;14.63;100.00
10946;BME280;5525;42.648;23.368;2023-06-05T03:47:51;95141.78;;;14.73;100.00
10946;BME280;5525;42.648;23.368;2023-06-05T03:50:19;95136.03;;;14.86;100.00
10946;BME280;5525;42.648;23.368;2023-06-05T03:52:46;95148.03;;;14.97;100.00
10946;BME280;5525;42.648;23.368;2023-06-05T03:55:18;95134.88;;;14.75;100.00
10946;BME280;5525;42.648;23.368;2023-06-05T03:57:46;95143.59;;;14.81;100.00
10946;BME280;5525;42.648;23.368;2023-06-05T04:00:13;95136.69;;;14.71;100.00
10946;BME280;5525;42.648;23.368;2023-06-05T04:02:41;95144.03;;;14.71;100.00
10946;BME280;5525;42.648;23.368;2023-06-05T04:05:08;95148.13;;;15.13;100.00
10946;BME280;5525;42.648;23.368;2023-06-05T04:07:37;95144.16;;;15.22;100.00
10946;BME280;5525;42.648;23.368;2023-06-05T04:10:04;95145.09;;;15.27;100.00
10946;BME280;5525;42.648;23.368;2023-06-05T04:12:31;95139.69;;;15.78;100.00
10946;BME280;5525;42.648;23.368;2023-06-05T04:14:59;95135.94;;;16.81;100.00
10946;BME280;5525;42.648;23.368;2023-06-05T04:17:25;95140.69;;;18.00;100.00
10946;BME280;5525;42.648;23.368;2023-06-05T04:19:52;95135.22;;;18.57;100.00
10946;BME280;5525;42.648;23.368;2023-06-05T04:22:18;95134.44;;;17.80;100.00
10946;BME280;5525;42.648;23.368;2023-06-05T04:24:45;95135.00;;;18.27;100.00
10946;BME280;5525;42.648;23.368;2023-06-05T04:27:12;95139.50;;;18.77;100.00
10946;BME280;5525;42.648;23.368;2023-06-05T04:29:39;95141.28;;;19.86;100.00
10946;BME280;5525;42.648;23.368;2023-06-05T04:32:09;95133.06;;;20.85;100.00
10946;BME280;5525;42.648;23.368;2023-06-05T04:34:36;95138.78;;;22.11;100.00
10946;BME280;5525;42.648;23.368;2023-06-05T04:37:03;95143.41;;;22.72;100.00
10946;BME280;5525;42.648;23.368;2023-06-05T04:39:30;95144.31;;;23.50;100.00
10946;BME280;5525;42.648;23.368;2023-06-05T04:41:58;95142.72;;;23.87;100.00
10946;BME280;5525;42.648;23.368;2023-06-05T04:44:24;95140.69;;;24.23;100.00
10946;BME280;5525;42.648;23.368;2023-06-05T04:46:51;95136.59;;;24.59;100.00
10946;BME280;5525;42.648;23.368;2023-06-05T04:49:19;95137.06;;;24.47;100.00
10946;BME280;5525;42.648;23.368;2023-06-05T04:51:46;95145.47;;;25.63;100.00
10946;BME280;5525;42.648;23.368;2023-06-05T04:54:13;95147.47;;;26.44;96.97
10946;BME280;5525;42.648;23.368;2023-06-05T04:56:40;95142.19;;;26.87;92.80
10946;BME280;5525;42.648;23.368;2023-06-05T04:59:07;95140.63;;;25.23;100.00
10946;BME280;5525;42.648;23.368;2023-06-05T05:01:34;95141.94;;;23.73;100.00
10946;BME280;5525;42.648;23.368;2023-06-05T05:04:01;95144.69;;;23.20;100.00
10946;BME280;5525;42.648;23.368;2023-06-05T05:06:30;95148.19;;;22.96;100.00
10946;BME280;5525;42.648;23.368;2023-06-05T05:08:59;95125.53;;;22.31;100.00
10946;BME280;5525;42.648;23.368;2023-06-05T05:11:26;95139.09;;;22.71;100.00
10946;BME280;5525;42.648;23.368;2023-06-05T05:13:53;95134.50;;;23.42;100.00
10946;BME280;5525;42.648;23.368;2023-06-05T05:16:20;95130.47;;;22.90;100.00
10946;BME280;5525;42.648;23.368;2023-06-05T05:18:47;95134.84;;;23.22;100.00
10946;BME280;5525;42.648;23.368;2023-06-05T05:21:14;95140.25;;;24.35;100.00
10946;BME280;5525;42.648;23.368;2023-06-05T05:23:44;95137.31;;;24.80;100.00
10946;BME280;5525;42.648;23.368;2023-06-05T05:26:10;95147.53;;;26.37;100.00
10946;BME280;5525;42.648;23.368;2023-06-05T05:28:38;95132.59;;;27.48;96.51
10946;BME280;5525;42.648;23.368;2023-06-05T05:31:05;95141.09;;;27.64;90.97
10946;BME280;5525;42.648;23.368;2023-06-05T05:33:31;95146.34;;;28.28;85.80
10946;BME280;5525;42.648;23.368;2023-06-05T05:35:58;95148.22;;;28.93;83.46
10946;BME280;5525;42.648;23.368;2023-06-05T05:38:25;95154.19;;;28.91;81.03
10946;BME280;5525;42.648;23.368;2023-06-05T05:40:53;95155.25;;;30.33;72.92
10946;BME280;5525;42.648;23.368;2023-06-05T05:43:19;95158.31;;;30.38;71.19
10946;BME280;5525;42.648;23.368;2023-06-05T05:45:46;95148.31;;;30.09;71.30
10946;BME280;5525;42.648;23.368;2023-06-05T05:48:13;95149.44;;;29.63;72.54
10946;BME280;5525;42.648;23.368;2023-06-05T05:50:40;95135.47;;;28.76;79.45
10946;BME280;5525;42.648;23.368;2023-06-05T05:53:06;95133.69;;;28.23;81.65
10946;BME280;5525;42.648;23.368;2023-06-05T05:55:33;95132.44;;;29.25;77.77
10946;BME280;5525;42.648;23.368;2023-06-05T05:58:01;95131.03;;;28.98;77.64
10946;BME280;5525;42.648;23.368;2023-06-05T06:00:28;95130.16;;;26.33;91.33
10946;BME280;5525;42.648;23.368;2023-06-05T06:02:54;95124.75;;;25.38;100.00
10946;BME280;5525;42.648;23.368;2023-06-05T06:05:21;95123.91;;;27.19;97.93
10946;BME280;5525;42.648;23.368;2023-06-05T06:07:48;95120.09;;;27.63;89.36
10946;BME280;5525;42.648;23.368;2023-06-05T06:10:14;95128.53;;;27.03;90.76
10946;BME280;5525;42.648;23.368;2023-06-05T06:12:43;95117.38;;;28.68;83.24
10946;BME280;5525;42.648;23.368;2023-06-05T06:15:11;95136.28;;;30.12;72.12
10946;BME280;5525;42.648;23.368;2023-06-05T06:17:38;95141.78;;;28.37;77.62
10946;BME280;5525;42.648;23.368;2023-06-05T06:20:06;95136.06;;;25.54;96.75
10946;BME280;5525;42.648;23.368;2023-06-05T06:22:35;95126.59;;;24.89;100.00
10946;BME280;5525;42.648;23.368;2023-06-05T06:25:01;95125.25;;;24.36;100.00
10946;BME280;5525;42.648;23.368;2023-06-05T06:27:28;95122.94;;;24.27;100.00
10946;BME280;5525;42.648;23.368;2023-06-05T06:29:56;95124.91;;;22.69;100.00
10946;BME280;5525;42.648;23.368;2023-06-05T06:32:24;95112.84;;;23.26;100.00
10946;BME280;5525;42.648;23.368;2023-06-05T06:34:51;95118.91;;;25.22;100.00
10946;BME280;5525;42.648;23.368;2023-06-05T06:37:19;95113.00;;;27.09;94.48
10946;BME280;5525;42.648;23.368;2023-06-05T06:39:48;95119.13;;;25.48;99.26
10946;BME280;5525;42.648;23.368;2023-06-05T06:42:15;95116.16;;;26.47;98.47
10946;BME280;5525;42.648;23.368;2023-06-05T06:44:41;95114.78;;;27.49;89.84
10946;BME280;5525;42.648;23.368;2023-06-05T06:47:09;95114.88;;;28.11;82.04
10946;BME280;5525;42.648;23.368;2023-06-05T06:49:38;95115.06;;;27.77;82.82
10946;BME280;5525;42.648;23.368;2023-06-05T06:52:05;95099.16;;;27.05;87.35
10946;BME280;5525;42.648;23.368;2023-06-05T06:54:31;95115.06;;;28.24;79.86
10946;BME280;5525;42.648;23.368;2023-06-05T06:56:59;95115.75;;;28.08;80.16
10946;BME280;5525;42.648;23.368;2023-06-05T06:59:27;95111.53;;;28.62;77.28
10946;BME280;5525;42.648;23.368;2023-06-05T07:02:09;95110.31;;;26.75;84.67
10946;BME280;5525;42.648;23.368;2023-06-05T07:04:38;95103.19;;;27.01;85.63
10946;BME280;5525;42.648;23.368;2023-06-05T07:07:08;95117.03;;;29.37;72.02
10946;BME280;5525;42.648;23.368;2023-06-05T07:09:35;95106.47;;;28.57;75.94
10946;BME280;5525;42.648;23.368;2023-06-05T07:12:01;95110.13;;;29.93;69.01
10946;BME280;5525;42.648;23.368;2023-06-05T07:14:30;95107.88;;;29.72;68.12
10946;BME280;5525;42.648;23.368;2023-06-05T07:16:58;95107.66;;;29.47;69.45
10946;BME280;5525;42.648;23.368;2023-06-05T07:19:25;95111.06;;;30.47;63.30
10946;BME280;5525;42.648;23.368;2023-06-05T07:21:54;95115.63;;;30.54;63.03
10946;BME280;5525;42.648;23.368;2023-06-05T07:24:21;95112.41;;;29.66;65.52
10946;BME280;5525;42.648;23.368;2023-06-05T07:26:50;95101.13;;;29.37;67.91
10946;BME280;5525;42.648;23.368;2023-06-05T07:29:17;95112.88;;;29.45;67.56
10946;BME280;5525;42.648;23.368;2023-06-05T07:31:44;95109.16;;;30.44;62.56
10946;BME280;5525;42.648;23.368;2023-06-05T07:34:10;95111.63;;;30.83;61.38
10946;BME280;5525;42.648;23.368;2023-06-05T07:36:38;95111.66;;;32.43;54.21
10946;BME280;5525;42.648;23.368;2023-06-05T07:39:06;95120.75;;;33.12;52.17
10946;BME280;5525;42.648;23.368;2023-06-05T07:41:33;95121.53;;;32.91;51.74
10946;BME280;5525;42.648;23.368;2023-06-05T07:43:59;95111.22;;;30.97;56.55
10946;BME280;5525;42.648;23.368;2023-06-05T07:46:26;95112.69;;;32.92;53.02
10946;BME280;5525;42.648;23.368;2023-06-05T07:48:53;95139.84;;;35.31;45.65
10946;BME280;5525;42.648;23.368;2023-06-05T07:51:19;95131.41;;;33.96;47.52
10946;BME280;5525;42.648;23.368;2023-06-05T07:53:46;95132.53;;;34.16;45.86
10946;BME280;5525;42.648;23.368;2023-06-05T07:56:14;95126.16;;;34.16;45.57
10946;BME280;5525;42.648;23.368;2023-06-05T07:58:42;95122.84;;;33.60;46.67
10946;BME280;5525;42.648;23.368;2023-06-05T08:01:09;95117.63;;;33.40;46.29
10946;BME280;5525;42.648;23.368;2023-06-05T08:03:37;95124.59;;;34.15;44.48
10946;BME280;5525;42.648;23.368;2023-06-05T08:06:04;95117.84;;;32.38;48.03
10946;BME280;5525;42.648;23.368;2023-06-05T08:08:31;95121.38;;;34.44;44.91
10946;BME280;5525;42.648;23.368;2023-06-05T08:10:57;95125.41;;;35.65;41.65
10946;BME280;5525;42.648;23.368;2023-06-05T08:13:25;95130.50;;;37.47;38.04
10946;BME280;5525;42.648;23.368;2023-06-05T08:15:52;95129.16;;;36.04;40.40
10946;BME280;5525;42.648;23.368;2023-06-05T08:18:19;95130.31;;;37.36;36.59
10946;BME280;5525;42.648;23.368;2023-06-05T08:20:46;95134.00;;;36.04;39.25
10946;BME280;5525;42.648;23.368;2023-06-05T08:23:13;95130.19;;;36.39;39.01
10946;BME280;5525;42.648;23.368;2023-06-05T08:25:42;95132.34;;;35.46;40.35
10946;BME280;5525;42.648;23.368;2023-06-05T08:28:09;95122.94;;;32.18;46.17
10946;BME280;5525;42.648;23.368;2023-06-05T08:30:37;95122.13;;;30.79;51.44
10946;BME280;5525;42.648;23.368;2023-06-05T08:33:03;95129.78;;;32.04;49.12
10946;BME280;5525;42.648;23.368;2023-06-05T08:35:30;95114.53;;;30.51;52.42
10946;BME280;5525;42.648;23.368;2023-06-05T08:37:57;95126.47;;;29.43;58.13
10946;BME280;5525;42.648;23.368;2023-06-05T08:40:25;95122.25;;;28.99;60.44
10946;BME280;5525;42.648;23.368;2023-06-05T08:42:54;95124.47;;;27.83;65.48
10946;BME280;5525;42.648;23.368;2023-06-05T08:45:21;95120.66;;;28.63;64.81
10946;BME280;5525;42.648;23.368;2023-06-05T08:47:50;95118.09;;;28.72;64.67
10946;BME280;5525;42.648;23.368;2023-06-05T08:50:17;95120.38;;;29.80;61.61
10946;BME280;5525;42.648;23.368;2023-06-05T08:52:44;95115.13;;;28.98;63.63
10946;BME280;5525;42.648;23.368;2023-06-05T08:55:14;95116.94;;;27.38;70.77
10946;BME280;5525;42.648;23.368;2023-06-05T08:57:42;95123.00;;;26.02;80.39
10946;BME280;5525;42.648;23.368;2023-06-05T09:00:10;95123.56;;;25.32;91.24
10946;BME280;5525;42.648;23.368;2023-06-05T09:02:38;95114.06;;;24.74;96.39
10946;BME280;5525;42.648;23.368;2023-06-05T09:05:10;95112.66;;;24.31;100.00
10946;BME280;5525;42.648;23.368;2023-06-05T09:07:37;95118.13;;;24.49;100.00
10946;BME280;5525;42.648;23.368;2023-06-05T09:10:05;95120.69;;;23.59;100.00
10946;BME280;5525;42.648;23.368;2023-06-05T09:12:32;95114.81;;;23.40;100.00
10946;BME280;5525;42.648;23.368;2023-06-05T09:14:59;95114.72;;;22.97;100.00
10946;BME280;5525;42.648;23.368;2023-06-05T09:17:26;95118.31;;;23.12;100.00
10946;BME280;5525;42.648;23.368;2023-06-05T09:19:52;95120.25;;;22.97;100.00
10946;BME280;5525;42.648;23.368;2023-06-05T09:22:32;95121.44;;;23.00;100.00
10946;BME280;5525;42.648;23.368;2023-06-05T09:24:59;95119.03;;;22.81;100.00
10946;BME280;5525;42.648;23.368;2023-06-05T09:27:26;95121.00;;;22.84;100.00
10946;BME280;5525;42.648;23.368;2023-06-05T09:30:02;95111.94;;;22.76;100.00
10946;BME280;5525;42.648;23.368;2023-06-05T09:32:29;95108.41;;;22.86;100.00
10946;BME280;5525;42.648;23.368;2023-06-05T09:34:56;95103.25;;;22.60;100.00
10946;BME280;5525;42.648;23.368;2023-06-05T09:37:33;95100.28;;;22.11;100.00
10946;BME280;5525;42.648;23.368;2023-06-05T09:40:01;95120.00;;;22.20;100.00
10946;BME280;5525;42.648;23.368;2023-06-05T09:42:32;95123.44;;;22.03;100.00
10946;BME280;5525;42.648;23.368;2023-06-05T09:44:59;95114.47;;;22.17;100.00
10946;BME280;5525;42.648;23.368;2023-06-05T09:47:26;95118.22;;;21.84;100.00
10946;BME280;5525;42.648;23.368;2023-06-05T09:49:53;95121.84;;;22.02;100.00
10946;BME280;5525;42.648;23.368;2023-06-05T09:52:20;95124.25;;;22.14;100.00
10946;BME280;5525;42.648;23.368;2023-06-05T09:54:48;95116.88;;;22.22;100.00
10946;BME280;5525;42.648;23.368;2023-06-05T09:57:16;95109.09;;;22.45;100.00
10946;BME280;5525;42.648;23.368;2023-06-05T09:59:45;95105.31;;;23.12;100.00
10946;BME280;5525;42.648;23.368;2023-06-05T10:02:16;95101.72;;;22.84;100.00
10946;BME280;5525;42.648;23.368;2023-06-05T10:04:46;95104.81;;;22.58;100.00
10946;BME280;5525;42.648;23.368;2023-06-05T10:07:13;95107.09;;;22.45;100.00
10946;BME280;5525;42.648;23.368;2023-06-05T10:09:42;95099.75;;;22.77;100.00
10946;BME280;5525;42.648;23.368;2023-06-05T10:12:12;95092.66;;;22.66;100.00
10946;BME280;5525;42.648;23.368;2023-06-05T10:14:41;95101.72;;;22.73;100.00
10946;BME280;5525;42.648;23.368;2023-06-05T10:17:09;95097.78;;;22.78;100.00
10946;BME280;5525;42.648;23.368;2023-06-05T10:19:36;95100.59;;;22.95;100.00
10946;BME280;5525;42.648;23.368;2023-06-05T10:22:07;95100.59;;;23.34;100.00
10946;BME280;5525;42.648;23.368;2023-06-05T10:24:35;95098.22;;;23.11;100.00
10946;BME280;5525;42.648;23.368;2023-06-05T10:27:36;95098.19;;;22.83;100.00
10946;BME280;5525;42.648;23.368;2023-06-05T10:33:25;95091.16;;;23.63;100.00
10946;BME280;5525;42.648;23.368;2023-06-05T10:36:02;95087.94;;;23.86;100.00
10946;BME280;5525;42.648;23.368;2023-06-05T10:38:33;95084.81;;;23.77;100.00
10946;BME280;5525;42.648;23.368;2023-06-05T10:41:01;95089.91;;;23.92;100.00
10946;BME280;5525;42.648;23.368;2023-06-05T10:43:31;95084.00;;;24.01;100.00
10946;BME280;5525;42.648;23.368;2023-06-05T10:45:59;95080.03;;;24.05;100.00
10946;BME280;5525;42.648;23.368;2023-06-05T10:51:32;95084.66;;;24.33;100.00
10946;BME280;5525;42.648;23.368;2023-06-05T10:54:02;95082.69;;;24.37;100.00
10946;BME280;5525;42.648;23.368;2023-06-05T10:56:58;95083.47;;;24.37;100.00
10946;BME280;5525;42.648;23.368;2023-06-05T10:59:28;95080.28;;;24.39;100.00
10946;BME280;5525;42.648;23.368;2023-06-05T11:02:23;95071.56;;;24.51;100.00
10946;BME280;5525;42.648;23.368;2023-06-05T11:05:09;95073.97;;;24.45;100.00
10946;BME280;5525;42.648;23.368;2023-06-05T11:07:36;95074.75;;;24.46;100.00
10946;BME280;5525;42.648;23.368;2023-06-05T11:10:10;95064.63;;;24.15;100.00
10946;BME280;5525;42.648;23.368;2023-06-05T11:12:57;95060.44;;;24.68;100.00
10946;BME280;5525;42.648;23.368;2023-06-05T11:15:41;95058.84;;;24.74;100.00
10946;BME280;5525;42.648;23.368;2023-06-05T11:18:33;95058.72;;;24.92;100.00
10946;BME280;5525;42.648;23.368;2023-06-05T11:21:01;95062.75;;;25.35;100.00
10946;BME280;5525;42.648;23.368;2023-06-05T11:23:28;95053.03;;;25.98;100.00
10946;BME280;5525;42.648;23.368;2023-06-05T11:25:56;95060.09;;;26.96;100.00
10946;BME280;5525;42.648;23.368;2023-06-05T11:28:43;95053.16;;;28.43;100.00
10946;BME280;5525;42.648;23.368;2023-06-05T11:31:11;95045.50;;;28.31;94.68
10946;BME280;5525;42.648;23.368;2023-06-05T11:33:38;95054.81;;;28.21;94.41
10946;BME280;5525;42.648;23.368;2023-06-05T11:36:05;95049.38;;;29.08;85.75
10946;BME280;5525;42.648;23.368;2023-06-05T11:38:34;95054.59;;;28.70;82.37
10946;BME280;5525;42.648;23.368;2023-06-05T11:41:05;95045.09;;;27.66;86.76
10946;BME280;5525;42.648;23.368;2023-06-05T11:43:33;95041.63;;;28.44;88.48
10946;BME280;5525;42.648;23.368;2023-06-05T11:46:07;95045.16;;;28.84;82.57
10946;BME280;5525;42.648;23.368;2023-06-05T11:48:42;95034.66;;;28.36;82.04
10946;BME280;5525;42.648;23.368;2023-06-05T11:51:09;95004.00;;;27.81;78.86
10946;BME280;5525;42.648;23.368;2023-06-05T11:53:43;95032.22;;;27.56;82.93
10946;BME280;5525;42.648;23.368;2023-06-05T11:56:13;95028.28;;;27.54;85.75
10946;BME280;5525;42.648;23.368;2023-06-05T11:58:42;95030.28;;;27.04;84.16
10946;BME280;5525;42.648;23.368;2023-06-05T12:01:11;95026.13;;;26.92;86.45
10946;BME280;5525;42.648;23.368;2023-06-05T12:03:42;95023.19;;;27.03;85.51
10946;BME280;5525;42.648;23.368;2023-06-05T12:06:09;95019.91;;;27.08;86.99
10946;BME280;5525;42.648;23.368;2023-06-05T12:08:37;95018.81;;;27.02;87.89
10946;BME280;5525;42.648;23.368;2023-06-05T12:11:19;95012.63;;;27.17;88.69
10946;BME280;5525;42.648;23.368;2023-06-05T12:13:47;95013.03;;;27.42;85.14
10946;BME280;5525;42.648;23.368;2023-06-05T12:16:14;95013.22;;;27.55;81.90
10946;BME280;5525;42.648;23.368;2023-06-05T12:18:43;95013.88;;;26.90;86.70
10946;BME280;5525;42.648;23.368;2023-06-05T12:21:21;95010.00;;;26.84;87.29
10946;BME280;5525;42.648;23.368;2023-06-05T12:23:48;95007.53;;;26.32;85.87
10946;BME280;5525;42.648;23.368;2023-06-05T12:26:15;95005.88;;;26.08;84.76
10946;BME280;5525;42.648;23.368;2023-06-05T12:28:43;95000.72;;;25.77;89.67
10946;BME280;5525;42.648;23.368;2023-06-05T12:31:32;94993.97;;;25.78;88.01
10946;BME280;5525;42.648;23.368;2023-06-05T12:34:02;94982.47;;;25.83;88.49
10946;BME280;5525;42.648;23.368;2023-06-05T12:36:29;94986.25;;;25.59;90.13
10946;BME280;5525;42.648;23.368;2023-06-05T12:39:01;94992.81;;;25.75;90.65
10946;BME280;5525;42.648;23.368;2023-06-05T12:41:31;94983.97;;;25.87;90.24
10946;BME280;5525;42.648;23.368;2023-06-05T12:44:01;94980.22;;;25.71;90.09
10946;BME280;5525;42.648;23.368;2023-06-05T12:46:29;94983.81;;;25.27;93.77
10946;BME280;5525;42.648;23.368;2023-06-05T12:48:56;94982.50;;;25.42;93.72
10946;BME280;5525;42.648;23.368;2023-06-05T12:51:24;94968.16;;;25.14;94.87
10946;BME280;5525;42.648;23.368;2023-06-05T12:53:52;94966.63;;;25.06;95.42
10946;BME280;5525;42.648;23.368;2023-06-05T12:56:19;94966.50;;;25.23;95.39
10946;BME280;5525;42.648;23.368;2023-06-05T12:58:51;94960.19;;;25.60;94.88
10946;BME280;5525;42.648;23.368;2023-06-05T13:01:18;94961.75;;;25.94;92.54
10946;BME280;5525;42.648;23.368;2023-06-05T13:03:45;94970.75;;;25.68;90.71
10946;BME280;5525;42.648;23.368;2023-06-05T13:06:12;94972.97;;;25.06;93.71
10946;BME280;5525;42.648;23.368;2023-06-05T13:08:40;94954.56;;;25.33;92.48